createdAt,value
2023-04-12T00:00:18.688Z,17.7
2023-04-12T00:05:17.136Z,17.7
2023-04-12T00:10:30.206Z,17.7
2023-04-12T00:15:16.175Z,17.7
2023-04-12T00:20:20.316Z,17.6
2023-04-12T00:25:16.181Z,17.6
2023-04-12T00:30:18.126Z,17.6
2023-04-12T00:35:18.241Z,17.6
2023-04-12T00:40:14.097Z,17.6
2023-04-12T00:45:20.356Z,17.6
2023-04-12T00:50:18.227Z,17.6
2023-04-12T00:55:13.966Z,17.6
2023-04-12T01:00:15.987Z,17.6
2023-04-12T01:05:18.084Z,17.6
2023-04-12T01:10:19.912Z,17.6
2023-04-12T01:15:19.716Z,17.6
2023-04-12T01:20:25.455Z,17.6
2023-04-12T01:25:16.288Z,17.6
2023-04-12T01:30:14.212Z,17.6
2023-04-12T01:35:14.343Z,17.6
2023-04-12T01:40:14.258Z,17.6
2023-04-12T01:45:22.669Z,17.6
2023-04-12T01:50:17.779Z,17.6
2023-04-12T01:55:15.736Z,17.5
2023-04-12T02:00:13.867Z,17.5
2023-04-12T02:05:15.801Z,17.5
2023-04-12T02:10:17.920Z,17.5
2023-04-12T02:15:17.793Z,17.5
2023-04-12T02:20:20.036Z,17.5
2023-04-12T02:25:23.753Z,17.5
2023-04-12T02:30:15.721Z,17.5
2023-04-12T02:35:20.813Z,17.5
2023-04-12T02:40:25.967Z,17.5
2023-04-12T02:45:19.723Z,17.5
2023-04-12T02:50:16.679Z,17.5
2023-04-12T02:55:18.689Z,17.5
2023-04-12T03:00:14.666Z,17.5
2023-04-12T03:05:18.955Z,17.5
2023-04-12T03:10:23.687Z,17.5
2023-04-12T03:15:21.861Z,17.5
2023-04-12T03:20:15.631Z,17.5
2023-04-12T03:25:20.495Z,17.4
2023-04-12T03:30:18.706Z,17.4
2023-04-12T03:35:14.826Z,17.4
2023-04-12T03:40:17.645Z,17.4
2023-04-12T03:45:18.873Z,17.4
2023-04-12T03:55:15.724Z,17.4
2023-04-12T04:00:18.017Z,17.4
2023-04-12T04:05:20.193Z,17.4
2023-04-12T04:10:24.555Z,17.4
2023-04-12T04:15:14.403Z,17.4
2023-04-12T04:20:16.657Z,17.4
2023-04-12T04:25:16.715Z,17.4
2023-04-12T04:30:17.562Z,17.4
2023-04-12T04:35:16.614Z,17.4
2023-04-12T04:40:15.728Z,17.4
2023-04-12T04:45:22.848Z,17.4
2023-04-12T04:50:17.761Z,17.4
2023-04-12T04:55:26.928Z,17.4
2023-04-12T05:00:17.855Z,17.4
2023-04-12T05:05:18.291Z,17.4
2023-04-12T05:10:16.389Z,17.4
2023-04-12T05:20:17.887Z,17.5
2023-04-12T05:25:16.084Z,17.5
2023-04-12T05:30:20.236Z,17.5
2023-04-12T05:35:18.157Z,17.5
2023-04-12T05:40:18.231Z,17.5
2023-04-12T05:45:16.294Z,17.5
2023-04-12T05:50:20.229Z,17.5
2023-04-12T05:55:22.153Z,17.5
2023-04-12T06:00:20.026Z,17.5
2023-04-12T06:05:27.327Z,17.5
2023-04-12T06:10:14.372Z,17.5
2023-04-12T06:15:14.147Z,17.5
2023-04-12T06:20:32.291Z,17.5
2023-04-12T06:25:20.388Z,17.5
2023-04-12T06:30:24.292Z,17.5
2023-04-12T06:35:18.359Z,17.5
2023-04-12T06:40:20.199Z,17.5
2023-04-12T06:45:16.134Z,17.5
2023-04-12T06:50:16.362Z,17.5
2023-04-12T06:55:20.187Z,17.5
2023-04-12T07:00:20.115Z,17.5
2023-04-12T07:05:15.831Z,17.6
2023-04-12T07:10:21.830Z,17.5
2023-04-12T07:15:17.736Z,17.5
2023-04-12T07:20:14.021Z,17.5
2023-04-12T07:25:17.805Z,17.6
2023-04-12T07:30:13.741Z,17.6
2023-04-12T07:35:13.529Z,17.6
2023-04-12T07:40:14.541Z,17.6
2023-04-12T07:45:18.397Z,17.6
2023-04-12T07:50:16.354Z,17.6
2023-04-12T07:55:14.192Z,17.6
2023-04-12T08:00:24.201Z,17.6
2023-04-12T08:05:18.083Z,17.6
2023-04-12T08:10:15.957Z,17.6
2023-04-12T08:15:14.320Z,17.6
2023-04-12T08:20:22.276Z,17.6
2023-04-12T08:25:16.848Z,17.7
2023-04-12T08:30:15.680Z,17.7
2023-04-12T08:35:22.481Z,17.7
2023-04-12T08:40:16.319Z,17.7
2023-04-12T08:45:14.328Z,17.7
2023-04-12T08:50:16.281Z,17.7
2023-04-12T08:55:20.137Z,17.7
2023-04-12T09:00:20.538Z,17.8
2023-04-12T09:05:15.442Z,17.8
2023-04-12T09:10:18.504Z,17.8
2023-04-12T09:15:16.826Z,17.8
2023-04-12T09:20:16.103Z,17.8
2023-04-12T09:25:21.194Z,17.8
2023-04-12T09:30:20.207Z,17.8
2023-04-12T09:35:24.397Z,17.8
2023-04-12T09:40:24.409Z,17.9
2023-04-12T09:45:18.443Z,17.9
2023-04-12T09:50:16.677Z,17.9
2023-04-12T09:55:15.579Z,17.9
2023-04-12T10:00:16.796Z,17.9
2023-04-12T10:05:17.809Z,17.9
2023-04-12T10:10:16.426Z,17.9
2023-04-12T10:15:48.534Z,17.9
2023-04-12T10:20:27.296Z,17.9
2023-04-12T10:25:13.678Z,17.9
2023-04-12T10:30:16.944Z,18
2023-04-12T10:35:14.060Z,18
2023-04-12T10:40:16.130Z,18
2023-04-12T10:45:14.336Z,18
2023-04-12T10:50:14.515Z,18
2023-04-12T10:55:19.073Z,18
2023-04-12T11:00:14.413Z,18
2023-04-12T11:05:20.450Z,18
2023-04-12T11:10:18.667Z,18
2023-04-12T11:15:22.979Z,18
2023-04-12T11:20:18.819Z,18
2023-04-12T11:25:16.060Z,18.1
2023-04-12T11:30:14.440Z,18.1
2023-04-12T11:35:14.294Z,18.1
2023-04-12T11:40:14.261Z,18.1
2023-04-12T11:45:30.037Z,18.1
2023-04-12T11:50:22.168Z,18.1
2023-04-12T11:55:16.190Z,18.1
2023-04-12T12:00:16.593Z,18.1
2023-04-12T12:05:20.492Z,18.1
2023-04-12T12:10:21.061Z,18.1
2023-04-12T12:15:20.892Z,18
2023-04-12T12:20:19.880Z,18
2023-04-12T12:25:19.824Z,18
2023-04-12T12:30:14.075Z,18
2023-04-12T12:35:14.225Z,18.1
2023-04-12T12:40:18.525Z,18
2023-04-12T12:45:20.740Z,18
2023-04-12T12:50:15.670Z,18
2023-04-12T12:55:15.804Z,18
2023-04-12T13:00:17.732Z,18
2023-04-12T13:05:18.954Z,18
2023-04-12T13:10:16.177Z,18.1
2023-04-12T13:15:36.261Z,18
2023-04-12T13:20:14.625Z,18
2023-04-12T13:25:20.553Z,18
2023-04-12T13:30:14.838Z,18.1
2023-04-12T13:35:15.773Z,18.1
2023-04-12T13:40:17.714Z,18.1
2023-04-12T13:45:15.708Z,18.1
2023-04-12T13:50:13.756Z,18.1
2023-04-12T13:55:23.758Z,18.1
2023-04-12T14:00:17.680Z,18.1
2023-04-12T14:05:18.828Z,18.1
2023-04-12T14:10:15.892Z,18.1
2023-04-12T14:15:16.167Z,18.1
2023-04-12T14:20:19.636Z,18.1
2023-04-12T14:25:17.652Z,18.1
2023-04-12T14:30:21.462Z,18.1
2023-04-12T14:35:22.387Z,18
2023-04-12T14:40:28.715Z,18.1
2023-04-12T14:45:13.802Z,18
2023-04-12T14:50:13.901Z,18.1
2023-04-12T14:55:22.010Z,18
2023-04-12T15:00:16.259Z,18
2023-04-12T15:05:18.968Z,18
2023-04-12T15:10:16.648Z,18
2023-04-12T15:15:17.699Z,18
2023-04-12T15:20:18.193Z,18
2023-04-12T15:25:24.124Z,18
2023-04-12T15:30:24.102Z,18
2023-04-12T15:35:38.632Z,18
2023-04-12T15:40:16.574Z,18
2023-04-12T15:45:14.703Z,18
2023-04-12T15:50:15.717Z,18
2023-04-12T15:55:13.667Z,18
2023-04-12T16:00:27.930Z,18
2023-04-12T16:05:28.283Z,18
2023-04-12T16:10:21.322Z,18
2023-04-12T16:15:16.453Z,18
2023-04-12T16:20:22.632Z,18
2023-04-12T16:25:15.656Z,17.9
2023-04-12T16:30:21.112Z,17.9
2023-04-12T16:35:22.298Z,17.9
2023-04-12T16:40:28.405Z,17.9
2023-04-12T16:45:14.401Z,17.9
2023-04-12T16:50:18.545Z,17.9
2023-04-12T16:55:29.062Z,17.9
2023-04-12T17:00:18.072Z,17.9
2023-04-12T17:05:18.335Z,17.9
2023-04-12T17:10:14.391Z,17.9
2023-04-12T17:15:20.425Z,17.9
2023-04-12T17:20:21.560Z,17.9
2023-04-12T17:25:17.749Z,17.9
2023-04-12T17:30:16.542Z,17.9
2023-04-12T17:35:14.856Z,17.9
2023-04-12T17:40:17.601Z,17.8
2023-04-12T17:45:18.641Z,17.8
2023-04-12T17:50:18.756Z,17.8
2023-04-12T17:55:19.731Z,17.8
2023-04-12T18:00:13.776Z,17.8
2023-04-12T18:05:16.499Z,17.8
2023-04-12T18:10:21.110Z,17.8
2023-04-12T18:15:15.594Z,17.8
2023-04-12T18:20:27.262Z,17.8
2023-04-12T18:25:20.140Z,17.8
2023-04-12T18:30:14.127Z,17.8
2023-04-12T18:35:20.176Z,17.8
2023-04-12T18:40:18.376Z,17.8
2023-04-12T18:45:14.315Z,17.8
2023-04-12T18:50:24.434Z,17.8
2023-04-12T18:55:16.526Z,17.8
2023-04-12T19:00:14.645Z,17.8
2023-04-12T19:05:24.451Z,17.8
2023-04-12T19:10:16.306Z,17.8
2023-04-12T19:15:20.347Z,17.8
2023-04-12T19:20:18.362Z,17.8
2023-04-12T19:25:22.558Z,17.8
2023-04-12T19:30:21.970Z,17.8
2023-04-12T19:35:19.928Z,17.7
2023-04-12T19:40:21.690Z,17.8
2023-04-12T19:45:21.047Z,17.7
2023-04-12T19:50:19.807Z,17.7
2023-04-12T19:55:24.145Z,17.7
2023-04-12T20:00:14.077Z,17.7
2023-04-12T20:05:16.521Z,17.7
2023-04-12T20:10:16.361Z,17.7
2023-04-12T20:15:18.140Z,17.7
2023-04-12T20:20:20.253Z,17.7
2023-04-12T20:25:20.057Z,17.7
2023-04-12T20:30:22.064Z,17.7
2023-04-12T20:35:14.116Z,17.7
2023-04-12T20:40:17.982Z,17.6
2023-04-12T20:45:14.371Z,17.7
2023-04-12T20:50:16.287Z,17.7
2023-04-12T20:55:20.240Z,17.6
2023-04-12T21:00:14.150Z,17.6
2023-04-12T21:05:17.902Z,17.6
2023-04-12T21:10:16.078Z,17.6
2023-04-12T21:15:18.083Z,17.6
2023-04-12T21:20:14.027Z,17.6
2023-04-12T21:25:20.169Z,17.6
2023-04-12T21:30:18.121Z,17.6
2023-04-12T21:35:20.303Z,17.6
2023-04-12T21:40:14.494Z,17.6
2023-04-12T21:45:16.438Z,17.6
2023-04-12T21:50:26.693Z,17.6
2023-04-12T21:55:18.625Z,17.6
2023-04-12T22:00:18.527Z,17.6
2023-04-12T22:05:18.985Z,17.5
2023-04-12T22:10:21.976Z,17.6
2023-04-12T22:15:15.978Z,17.5
2023-04-12T22:20:18.176Z,17.5
2023-04-12T22:25:22.082Z,17.5
2023-04-12T22:30:20.227Z,17.5
2023-04-12T22:35:22.638Z,17.5
2023-04-12T22:40:14.516Z,17.5
2023-04-12T22:45:18.747Z,17.5
2023-04-12T22:50:25.819Z,17.5
2023-04-12T22:55:13.752Z,17.5
2023-04-12T23:00:23.892Z,17.5
2023-04-12T23:05:22.435Z,17.5
2023-04-12T23:10:17.629Z,17.5
2023-04-12T23:15:20.715Z,17.5
2023-04-12T23:20:13.857Z,17.5
2023-04-12T23:25:15.802Z,17.5
2023-04-12T23:30:15.965Z,17.5
2023-04-12T23:35:15.807Z,17.4
2023-04-12T23:40:19.936Z,17.4
2023-04-12T23:45:14.359Z,17.4
2023-04-12T23:50:16.537Z,17.4
2023-04-12T23:55:16.398Z,17.4
